Open Full Screen Window  High Contrast Mode
Wind Gusting 00 knots
06
June 28, 2016 9:04 AM EDT
Weather Information
Wind Direction
  320 °
Wind Speed
  06 kt (7 mph)
Wind Gust
  00 kt (0 mph)
Altimeter
30.08 in
Visibility
10 SM
Temperature
15° C
59° F
Dewpoint
11° C
52° F
Humidity
77%
1hr Rain Fall
00.00 in.
24hr Rain Fall
00.00 in.
Sky Condition
Overcast @ 1,600 ft
MVFR

METAR KIKW 281304Z AUTO 32006KT 10SM OVC016 15/11 A3008 RMK AO2 T01490110

*Background is not an actual portrayal of the airport.